Wichita, KS (67235)

3:42 PM CDT on August 29, 2014 (GMT -0500)
Highland Springs | Change Station
CLOSE
Current Station
Personal Weather Station
Location: Wichita, KS
Elevation: 1370 ft
Nearby Weather Stations

Elev 1370 ft 37.69 °N, 97.51 °W | Updated 4 seconds ago

Scattered Clouds
Scattered Clouds
85.3 °F
Feels Like 89 °F
N
4.0
Wind Variable Wind from SSW
Gusts 12.0 mph

Today
High -- | Low -- °F
--% Chance of Precip.
Yesterday
High -- | Low -- °F
Precip. -- in
6:57 AM 8:03 PM
Waxing Crescent, 16% visible
Pressure 29.86 in
Visibility 10.0 miles
Clouds Scattered Clouds 4000 ft
Heat Index 89 °F
Dew Point 69 °F
Humidity 58%
Rainfall 0.00 in
Snow Depth Not available.
UV 0.0 out of 12
Pollen 9.20 out of 12
Air Quality Not available.
Flu Activity Not available.
METAR KICT 291953Z 22014G19KT 10SM SCT040 29/18 A2986

More Conditions Fewer Conditions

Pressure 29.86 in
Visibility 10.0 miles
Clouds Scattered Clouds 4000 ft
Heat Index 89 °F
Dew Point 69 °F
Humidity 58%
Rainfall 0.00 in
Snow Depth Not available.
UV 0.0 out of 12
Pollen 9.20 out of 12
Air Quality Not available.
Flu Activity Not available.
METAR KICT 291953Z 22014G19KT 10SM SCT040 29/18 A2986

More Conditions Fewer Conditions

10-Day Weather Forecast

Almanac

Astronomy

Aug. 29, 2014 Rise Set
Actual Time 6:57 AM CDT 8:03 PM CDT
Civil Twilight 6:30 AM CDT 8:30 PM CDT
Nautical Twilight 5:58 AM CDT 9:02 PM CDT
Astronomical Twilight 5:25 AM CDT 9:35 PM CDT
Moon 10:43 AM CDT 10:07 PM CDT
Length of Visible Light 13h 59m
Length of Day
13h 05m
Tomorrow will be 2m 18s shorter.
Waxing Crescent, 16% of the Moon is Illuminated
Today
Waxing Crescent
Sep 2
First Quarter
Sep 8
Full
Sep 15
Last Quarter
Sep 24
New

Today's Extremes

State Highs State Lows

Community

WunderPhotos

Upload Photos

1,748,345 photos uploaded!

Nearby

Snow Depth

Station Depth Elevation
No new snow has been reported.

Earthquake Activity

City Distance Mag. Time & Date
Guthrie, Oklahoma 127 miles 3.2 10:39 AM CDT
2014-08-29
Perry, Oklahoma 101 miles 3.0 4:52 AM CDT
2014-08-29
Stillwater, Oklahoma 110 miles 3.1 10:44 AM CDT
2014-08-27
Anthony, Kansas 48 miles 2.8 10:11 AM CDT
2014-08-27
Minimum magnitude displayed is 2.5.

Coastal Water Temperatures

Place Temperature
No Stations Reporting

Nearby Weather Stations